Time;durP1;ratioP1;P1;durP2;ratioP2;P2;SDS_P1;SDS_P2;PMS_P1;PMS_P2;Temp;Humidity;BMP_temperature;BMP_pressure;BME280_temperature;BME280_humidity;BME280_pressure;Samples;Min_cycle;Max_cycle;Signal;HPM_P1;HPM_P2
2021/08/17 00:02:13;;;;;;;;;;;;;;;12.96;74.21;101634.94;5083806;28;20014;-48
2021/08/17 00:04:40;;;;;;;;;;;;;;;12.89;74.88;101641.56;5080159;28;20628;-47
2021/08/17 00:07:07;;;;;;;;;;;;;;;12.93;74.43;101640.41;5075744;28;20379;-45
2021/08/17 00:09:33;;;;;;;;;;;;;;;12.96;74.27;101645.50;5083463;28;20363;-49
2021/08/17 00:12:00;;;;;;;;;;;;;;;12.96;74.22;101646.34;5058580;28;19974;-47
2021/08/17 00:14:27;;;;;;;;;;;;;;;12.85;74.08;101646.16;5074814;28;19932;-44
2021/08/17 00:16:53;;;;;;;;;;;;;;;12.81;74.78;101653.41;5062984;28;19932;-48
2021/08/17 00:19:20;;;;;;;;;;;;;;;12.87;74.48;101652.22;5082341;28;20374;-47
2021/08/17 00:21:47;;;;;;;;;;;;;;;12.78;74.50;101655.41;5080227;28;20371;-47
2021/08/17 00:24:13;;;;;;;;;;;;;;;12.75;74.39;101658.22;5067221;28;19924;-46
2021/08/17 00:26:40;;;;;;;;;;;;;;;12.72;75.10;101655.78;5077786;28;19924;-48
2021/08/17 00:29:07;;;;;;;;;;;;;;;12.73;74.92;101654.84;5056199;28;20390;-48
2021/08/17 00:31:33;;;;;;;;;;;;;;;12.68;74.71;101655.97;5077026;28;20709;-48
2021/08/17 00:34:00;;;;;;;;;;;;;;;12.67;75.29;101656.06;5080182;28;19924;-49
2021/08/17 00:36:30;;;;;;;;;;;;;;;12.66;74.88;101663.13;5079713;28;19924;-47
2021/08/17 00:38:56;;;;;;;;;;;;;;;12.62;75.61;101653.69;5081620;28;19928;-47
2021/08/17 00:41:23;;;;;;;;;;;;;;;12.60;75.42;101652.97;5080121;28;19931;-58
2021/08/17 00:43:50;;;;;;;;;;;;;;;12.61;75.45;101646.75;5065002;28;20387;-58
2021/08/17 00:46:16;;;;;;;;;;;;;;;12.53;75.52;101646.38;5083234;28;20283;-58
2021/08/17 00:48:43;;;;;;;;;;;;;;;12.47;76.25;101654.63;5084734;28;20329;-58
2021/08/17 00:51:09;;;;;;;;;;;;;;;12.54;76.00;101644.56;5086155;28;19925;-58
2021/08/17 00:53:36;;;;;;;;;;;;;;;12.47;75.53;101644.09;5079400;28;20394;-58
2021/08/17 00:56:03;;;;;;;;;;;;;;;12.50;76.04;101638.63;5063458;28;19970;-58
2021/08/17 00:58:30;;;;;;;;;;;;;;;12.46;75.95;101637.97;5065018;28;19925;-59
2021/08/17 01:00:57;;;;;;;;;;;;;;;12.40;76.06;101632.22;5081365;28;19924;-59
2021/08/17 01:03:24;;;;;;;;;;;;;;;12.46;76.32;101637.09;5084469;28;19939;-59
2021/08/17 01:05:51;;;;;;;;;;;;;;;12.37;76.65;101635.88;5081016;28;19928;-59
2021/08/17 01:08:17;;;;;;;;;;;;;;;12.29;76.88;101638.97;5064875;28;19931;-59
2021/08/17 01:10:44;;;;;;;;;;;;;;;12.36;77.04;101633.34;5085241;28;19924;-59
2021/08/17 01:13:11;;;;;;;;;;;;;;;12.29;76.78;101635.50;5084408;28;19939;-59
2021/08/17 01:15:37;;;;;;;;;;;;;;;12.33;76.52;101644.91;5085076;28;19935;-58
2021/08/17 01:18:06;;;;;;;;;;;;;;;12.30;77.15;101645.13;5081619;28;19929;-58
2021/08/17 01:20:33;;;;;;;;;;;;;;;12.26;76.73;101651.50;5083082;28;19924;-58
2021/08/17 01:23:00;;;;;;;;;;;;;;;12.23;77.30;101657.81;5079833;28;20016;-58
2021/08/17 01:25:27;;;;;;;;;;;;;;;12.23;76.62;101655.19;5081894;28;19924;-58
2021/08/17 01:27:53;;;;;;;;;;;;;;;12.18;76.80;101655.44;5068209;28;19965;-58
2021/08/17 01:30:21;;;;;;;;;;;;;;;12.21;77.25;101664.13;5081613;28;19928;-58
2021/08/17 01:32:47;;;;;;;;;;;;;;;12.17;77.68;101655.53;5074312;28;19924;-58
2021/08/17 01:35:14;;;;;;;;;;;;;;;12.17;77.53;101663.44;5083523;28;19925;-59
2021/08/17 01:37:41;;;;;;;;;;;;;;;12.16;77.51;101659.97;5082878;28;20371;-58
2021/08/17 01:40:09;;;;;;;;;;;;;;;12.16;77.69;101667.00;5084011;28;20430;-50
2021/08/17 01:42:37;;;;;;;;;;;;;;;12.13;76.87;101660.16;5083478;28;19973;-46
2021/08/17 01:45:04;;;;;;;;;;;;;;;12.11;77.48;101663.81;5048773;28;20030;-46
2021/08/17 01:47:31;;;;;;;;;;;;;;;12.13;77.20;101662.78;5083092;28;19977;-49
2021/08/17 01:49:59;;;;;;;;;;;;;;;12.09;76.82;101666.53;5065277;28;20053;-47
2021/08/17 01:52:25;;;;;;;;;;;;;;;12.04;77.21;101671.22;5081103;28;19929;-58
2021/08/17 01:54:52;;;;;;;;;;;;;;;12.04;77.35;101665.97;5080421;28;20449;-58
2021/08/17 01:57:19;;;;;;;;;;;;;;;12.00;77.97;101667.91;5087456;28;20052;-58
2021/08/17 01:59:46;;;;;;;;;;;;;;;11.99;78.18;101671.47;5057377;28;20331;-58
2021/08/17 02:02:13;;;;;;;;;;;;;;;12.00;78.36;101682.88;5061495;28;19925;-58
2021/08/17 02:04:39;;;;;;;;;;;;;;;11.99;78.66;101682.03;5082594;28;19969;-58
2021/08/17 02:07:06;;;;;;;;;;;;;;;11.93;78.82;101679.72;5083475;28;19928;-58
2021/08/17 02:09:33;;;;;;;;;;;;;;;11.87;79.75;101689.78;5078834;28;19924;-48
2021/08/17 02:11:59;;;;;;;;;;;;;;;11.94;79.45;101683.19;5088101;28;20341;-58
2021/08/17 02:14:26;;;;;;;;;;;;;;;11.87;79.23;101687.97;5083222;28;19929;-58
2021/08/17 02:16:53;;;;;;;;;;;;;;;11.86;79.30;101681.00;5083668;28;19928;-59
2021/08/17 02:19:20;;;;;;;;;;;;;;;11.86;79.41;101685.44;5077935;28;19925;-47
2021/08/17 02:21:46;;;;;;;;;;;;;;;11.80;79.77;101678.72;5081536;28;19931;-49
2021/08/17 02:24:13;;;;;;;;;;;;;;;11.79;79.79;101682.28;5064457;28;20264;-48
2021/08/17 02:26:39;;;;;;;;;;;;;;;11.76;80.57;101685.09;5081842;28;19951;-47
2021/08/17 02:29:06;;;;;;;;;;;;;;;11.72;81.27;101681.78;5074117;28;19998;-48
2021/08/17 02:31:33;;;;;;;;;;;;;;;11.67;80.98;101671.53;5080830;28;19931;-48
2021/08/17 02:34:00;;;;;;;;;;;;;;;11.64;81.42;101682.25;5081897;28;19923;-44
2021/08/17 02:36:26;;;;;;;;;;;;;;;11.61;81.17;101679.75;5079217;28;19997;-47
2021/08/17 02:38:53;;;;;;;;;;;;;;;11.61;81.56;101678.91;5079049;28;19928;-46
2021/08/17 02:41:19;;;;;;;;;;;;;;;11.60;81.93;101674.56;5081698;28;19924;-45
2021/08/17 02:43:46;;;;;;;;;;;;;;;11.53;82.89;101674.06;5084416;28;20382;-46
2021/08/17 02:46:13;;;;;;;;;;;;;;;11.48;82.40;101670.88;5079687;28;19924;-59
2021/08/17 02:48:39;;;;;;;;;;;;;;;11.49;82.64;101672.53;5076695;28;19993;-59
2021/08/17 02:51:06;;;;;;;;;;;;;;;11.46;82.53;101673.56;5082790;28;19932;-59
2021/08/17 02:53:32;;;;;;;;;;;;;;;11.45;82.81;101676.28;5060834;28;19932;-59
2021/08/17 02:55:59;;;;;;;;;;;;;;;11.40;83.56;101675.69;5053210;28;19924;-59
2021/08/17 02:58:26;;;;;;;;;;;;;;;11.35;83.42;101681.22;5070392;28;19982;-59
2021/08/17 03:00:52;;;;;;;;;;;;;;;11.35;83.45;101680.38;5069544;28;19925;-59
2021/08/17 03:03:19;;;;;;;;;;;;;;;11.34;83.68;101671.59;5079404;28;19924;-58
2021/08/17 03:05:46;;;;;;;;;;;;;;;11.32;83.90;101669.06;5083296;28;19966;-58
2021/08/17 03:08:12;;;;;;;;;;;;;;;11.29;83.84;101663.97;5060959;28;19933;-59
2021/08/17 03:10:39;;;;;;;;;;;;;;;11.29;83.81;101666.59;5078494;28;19924;-59
2021/08/17 03:13:06;;;;;;;;;;;;;;;11.29;84.31;101671.88;5082027;28;19935;-59
2021/08/17 03:15:33;;;;;;;;;;;;;;;11.34;84.75;101668.97;5081892;28;19932;-59
2021/08/17 03:18:04;;;;;;;;;;;;;;;11.35;84.10;101670.69;5067265;28;19931;-44
2021/08/17 03:20:30;;;;;;;;;;;;;;;11.25;85.02;101665.06;5077055;28;19970;-50
2021/08/17 03:22:57;;;;;;;;;;;;;;;11.19;85.67;101665.41;5062307;28;20525;-45
2021/08/17 03:25:26;;;;;;;;;;;;;;;11.18;85.61;101661.09;5080292;28;20470;-45
2021/08/17 03:27:53;;;;;;;;;;;;;;;11.21;84.97;101662.69;5076474;28;19924;-51
2021/08/17 03:30:20;;;;;;;;;;;;;;;11.20;85.15;101663.63;5061254;28;20379;-48
2021/08/17 03:32:47;;;;;;;;;;;;;;;11.15;85.91;101656.84;5079262;28;19932;-59
2021/08/17 03:35:14;;;;;;;;;;;;;;;11.18;86.11;101658.47;5078563;28;19956;-59
2021/08/17 03:37:41;;;;;;;;;;;;;;;11.12;86.08;101656.97;5061578;28;19928;-59
2021/08/17 03:40:09;;;;;;;;;;;;;;;11.08;86.51;101658.09;5079480;28;19971;-59
2021/08/17 03:42:37;;;;;;;;;;;;;;;11.11;86.65;101654.44;5081490;28;19928;-58
2021/08/17 03:45:08;;;;;;;;;;;;;;;11.07;86.88;101652.91;5072845;28;19925;-58
2021/08/17 03:47:35;;;;;;;;;;;;;;;11.08;86.83;101654.59;5073350;28;19925;-59
2021/08/17 03:50:03;;;;;;;;;;;;;;;11.12;86.39;101658.78;5080927;28;19932;-59
2021/08/17 03:52:30;;;;;;;;;;;;;;;11.14;86.46;101657.75;5086163;28;20006;-59
2021/08/17 03:54:56;;;;;;;;;;;;;;;11.19;86.18;101657.50;5078364;28;20386;-59
2021/08/17 03:57:23;;;;;;;;;;;;;;;11.18;86.91;101661.09;5078891;28;19924;-59
2021/08/17 03:59:50;;;;;;;;;;;;;;;11.22;86.36;101660.00;5072654;28;20312;-47
2021/08/17 04:02:16;;;;;;;;;;;;;;;11.21;86.77;101666.19;5092208;28;20449;-46
2021/08/17 04:04:43;;;;;;;;;;;;;;;11.18;87.19;101668.13;5092789;28;19924;-45
2021/08/17 04:07:10;;;;;;;;;;;;;;;11.24;86.92;101675.69;5079746;28;19924;-59
2021/08/17 04:09:36;;;;;;;;;;;;;;;11.22;87.62;101674.91;5092792;28;19928;-59
2021/08/17 04:12:03;;;;;;;;;;;;;;;11.23;87.05;101680.09;5081813;28;19928;-46
2021/08/17 04:14:30;;;;;;;;;;;;;;;11.24;87.41;101675.69;5092084;28;19931;-57
2021/08/17 04:16:57;;;;;;;;;;;;;;;11.23;87.80;101661.66;5076460;28;19924;-58
2021/08/17 04:19:24;;;;;;;;;;;;;;;11.24;87.20;101668.63;5079629;28;19924;-58
2021/08/17 04:21:51;;;;;;;;;;;;;;;11.27;87.84;101679.00;5076578;28;20326;-58
2021/08/17 04:24:18;;;;;;;;;;;;;;;11.26;87.71;101668.53;5084726;28;19925;-58
2021/08/17 04:26:44;;;;;;;;;;;;;;;11.32;87.59;101681.38;5079505;28;19982;-59
2021/08/17 04:29:11;;;;;;;;;;;;;;;11.32;88.46;101676.97;5082172;28;20387;-59
2021/08/17 04:31:38;;;;;;;;;;;;;;;11.28;88.61;101670.16;5083330;28;19925;-59
2021/08/17 04:34:05;;;;;;;;;;;;;;;11.36;88.47;101663.63;5087159;28;20272;-58
2021/08/17 04:36:31;;;;;;;;;;;;;;;11.38;89.15;101665.22;5085257;28;19985;-58
2021/08/17 04:38:58;;;;;;;;;;;;;;;11.40;89.78;101659.88;5075632;28;19925;-58
2021/08/17 04:41:25;;;;;;;;;;;;;;;11.43;89.47;101663.19;5075773;28;19924;-58
2021/08/17 04:43:52;;;;;;;;;;;;;;;11.48;89.65;101660.31;5086476;28;19963;-58
2021/08/17 04:46:18;;;;;;;;;;;;;;;11.49;90.38;101656.72;5083751;28;20283;-58
2021/08/17 04:48:45;;;;;;;;;;;;;;;11.52;91.42;101661.84;5082474;28;19924;-58
2021/08/17 04:51:11;;;;;;;;;;;;;;;11.55;90.66;101666.06;5059446;28;19928;-58
2021/08/17 04:53:38;;;;;;;;;;;;;;;11.60;91.23;101671.94;5087311;28;19939;-58
2021/08/17 04:56:05;;;;;;;;;;;;;;;11.64;90.97;101673.47;5087239;28;19928;-58
2021/08/17 04:58:32;;;;;;;;;;;;;;;11.66;90.98;101677.72;5075666;28;19977;-44
2021/08/17 05:00:59;;;;;;;;;;;;;;;11.71;91.05;101687.16;5056922;28;19936;-46
2021/08/17 05:03:26;;;;;;;;;;;;;;;11.76;91.43;101677.19;5078875;28;19924;-48
2021/08/17 05:05:53;;;;;;;;;;;;;;;11.84;91.21;101673.19;5077511;28;20303;-59
2021/08/17 05:08:19;;;;;;;;;;;;;;;11.89;91.22;101680.84;5083015;28;19923;-59
2021/08/17 05:10:46;;;;;;;;;;;;;;;11.91;91.05;101691.28;5073243;28;19977;-58
2021/08/17 05:13:13;;;;;;;;;;;;;;;11.96;90.90;101697.19;5042057;28;19936;-59
2021/08/17 05:15:39;;;;;;;;;;;;;;;12.02;91.21;101702.09;5095219;28;20271;-59
2021/08/17 05:18:06;;;;;;;;;;;;;;;12.02;91.14;101698.63;5048788;28;20023;-59
2021/08/17 05:20:33;;;;;;;;;;;;;;;12.05;90.91;101701.06;5055521;28;19924;-59
2021/08/17 05:22:59;;;;;;;;;;;;;;;12.08;91.11;101692.97;5054294;28;19928;-59
2021/08/17 05:25:26;;;;;;;;;;;;;;;12.14;90.79;101690.81;5089366;28;19979;-47
2021/08/17 05:27:53;;;;;;;;;;;;;;;12.17;91.50;101708.25;5041031;28;20711;-47
2021/08/17 05:30:21;;;;;;;;;;;;;;;12.25;91.40;101708.66;5082586;28;19929;-49
2021/08/17 05:32:48;;;;;;;;;;;;;;;12.29;91.18;101710.19;5090254;28;19924;-47
2021/08/17 05:35:15;;;;;;;;;;;;;;;12.32;91.70;101715.31;5075989;28;19925;-58
2021/08/17 05:37:42;;;;;;;;;;;;;;;12.36;91.27;101710.66;5058235;28;20475;-58
2021/08/17 05:40:09;;;;;;;;;;;;;;;12.44;92.07;101707.59;5065488;28;19924;-58
2021/08/17 05:42:36;;;;;;;;;;;;;;;12.51;91.65;101704.47;5049773;28;19977;-58
2021/08/17 05:45:03;;;;;;;;;;;;;;;12.58;91.67;101699.69;5074631;28;19924;-58
2021/08/17 05:47:31;;;;;;;;;;;;;;;12.66;91.93;101707.16;5075311;28;20279;-58
2021/08/17 05:49:58;;;;;;;;;;;;;;;12.73;92.17;101705.81;5082187;28;19924;-58
2021/08/17 05:52:24;;;;;;;;;;;;;;;12.77;92.52;101702.06;5054836;28;20290;-59
2021/08/17 05:54:51;;;;;;;;;;;;;;;12.84;92.44;101699.91;5091570;28;19931;-58
2021/08/17 05:57:18;;;;;;;;;;;;;;;12.90;92.63;101691.63;5060933;28;19947;-58
2021/08/17 05:59:45;;;;;;;;;;;;;;;12.96;92.97;101682.47;5043005;28;20334;-58
2021/08/17 06:02:11;;;;;;;;;;;;;;;13.02;92.62;101674.19;5065170;28;19928;-58
2021/08/17 06:04:38;;;;;;;;;;;;;;;13.08;92.66;101680.88;5074025;28;19959;-57
2021/08/17 06:07:05;;;;;;;;;;;;;;;13.14;92.65;101675.19;5074998;28;19924;-58
2021/08/17 06:09:32;;;;;;;;;;;;;;;13.23;92.64;101677.25;5068933;28;19931;-57
2021/08/17 06:11:59;;;;;;;;;;;;;;;13.28;92.33;101683.09;5075908;28;19994;-58
2021/08/17 06:14:26;;;;;;;;;;;;;;;13.34;92.32;101693.25;5077418;28;20395;-58
2021/08/17 06:16:52;;;;;;;;;;;;;;;13.41;92.33;101701.69;5080544;28;19924;-59
2021/08/17 06:19:19;;;;;;;;;;;;;;;13.46;92.34;101704.88;5082245;28;19970;-59
2021/08/17 06:21:46;;;;;;;;;;;;;;;13.54;92.75;101720.25;5089671;28;19931;-58
2021/08/17 06:24:12;;;;;;;;;;;;;;;13.61;92.12;101712.78;5090810;28;19985;-59
2021/08/17 06:26:39;;;;;;;;;;;;;;;13.70;92.09;101709.53;5090876;28;19924;-58
2021/08/17 06:29:06;;;;;;;;;;;;;;;13.79;91.98;101700.16;5059387;28;19974;-58
2021/08/17 06:31:32;;;;;;;;;;;;;;;13.93;91.85;101704.53;5065583;28;19928;-58
2021/08/17 06:34:01;;;;;;;;;;;;;;;13.99;91.61;101699.69;5058206;28;20394;-57
2021/08/17 06:36:28;;;;;;;;;;;;;;;14.08;91.43;101692.09;5062843;28;19933;-57
2021/08/17 06:38:56;;;;;;;;;;;;;;;14.14;91.47;101686.41;5050567;28;20379;-44
2021/08/17 06:41:23;;;;;;;;;;;;;;;14.29;90.67;101695.09;5059267;28;20360;-46
2021/08/17 06:43:50;;;;;;;;;;;;;;;14.33;90.50;101683.38;5063353;28;19928;-45
2021/08/17 06:46:16;;;;;;;;;;;;;;;14.39;90.06;101672.38;5057515;28;19929;-46
2021/08/17 06:48:43;;;;;;;;;;;;;;;14.48;89.58;101662.94;5071682;28;20576;-44
2021/08/17 06:51:10;;;;;;;;;;;;;;;14.61;89.02;101665.59;5066318;28;19925;-44
2021/08/17 06:53:37;;;;;;;;;;;;;;;14.61;88.07;101653.19;5066633;28;19924;-44
2021/08/17 06:56:04;;;;;;;;;;;;;;;14.69;88.42;101655.34;5062848;28;19959;-44
2021/08/17 06:58:31;;;;;;;;;;;;;;;14.77;88.30;101660.13;5054108;28;19931;-49
2021/08/17 07:00:58;;;;;;;;;;;;;;;14.81;87.87;101656.31;5054274;28;19932;-50
2021/08/17 07:03:25;;;;;;;;;;;;;;;14.93;87.74;101663.38;5056443;28;20388;-51
2021/08/17 07:05:52;;;;;;;;;;;;;;;15.02;87.47;101669.81;5054185;28;20404;-49
2021/08/17 07:08:18;;;;;;;;;;;;;;;15.07;87.20;101678.28;5066166;28;19928;-48
2021/08/17 07:10:45;;;;;;;;;;;;;;;15.06;87.14;101673.94;5066198;28;19931;-49
2021/08/17 07:13:26;;;;;;;;;;;;;;;15.07;86.84;101672.16;5041962;28;20020;-48
2021/08/17 07:15:53;;;;;;;;;;;;;;;15.17;86.76;101691.72;5060192;28;19925;-49
2021/08/17 07:18:20;;;;;;;;;;;;;;;15.25;86.31;101715.88;5063288;28;19924;-58
2021/08/17 07:20:47;;;;;;;;;;;;;;;15.26;85.90;101693.72;5062389;28;20038;-59
2021/08/17 07:23:14;;;;;;;;;;;;;;;15.27;85.79;101678.66;5054701;28;19925;-58
2021/08/17 07:25:41;;;;;;;;;;;;;;;15.33;85.86;101680.88;5060712;28;19932;-58
2021/08/17 07:28:10;;;;;;;;;;;;;;;15.43;85.62;101687.19;5065032;28;19931;-57
2021/08/17 07:30:40;;;;;;;;;;;;;;;15.45;85.67;101684.47;5070169;28;19931;-59
2021/08/17 07:33:07;;;;;;;;;;;;;;;15.54;85.55;101673.16;5052641;28;19924;-58
2021/08/17 07:35:34;;;;;;;;;;;;;;;15.59;84.72;101678.16;5068077;28;20414;-58
2021/08/17 07:38:01;;;;;;;;;;;;;;;15.65;85.19;101672.38;5069866;28;19952;-58
2021/08/17 07:40:27;;;;;;;;;;;;;;;15.76;84.73;101671.59;5083451;28;19924;-58
2021/08/17 07:42:54;;;;;;;;;;;;;;;15.87;84.23;101679.66;5060913;28;19925;-58
2021/08/17 07:45:22;;;;;;;;;;;;;;;15.88;83.98;101684.84;5081712;28;20007;-58
2021/08/17 07:48:00;;;;;;;;;;;;;;;15.96;84.35;101692.19;5087062;28;19924;-58
2021/08/17 07:50:27;;;;;;;;;;;;;;;16.12;83.99;101683.09;5074186;28;19978;-58
2021/08/17 07:52:54;;;;;;;;;;;;;;;16.11;84.46;101686.72;5076064;28;19931;-59
2021/08/17 07:55:21;;;;;;;;;;;;;;;16.18;83.60;101701.19;5060883;28;19931;-58
2021/08/17 07:57:47;;;;;;;;;;;;;;;16.25;83.28;101697.13;5080384;28;20417;-58
2021/08/17 08:00:14;;;;;;;;;;;;;;;16.33;83.08;101688.56;5088627;28;20514;-59
2021/08/17 08:02:41;;;;;;;;;;;;;;;16.35;83.36;101682.19;5074904;28;20007;-58
2021/08/17 08:05:08;;;;;;;;;;;;;;;16.59;82.23;101683.09;5075163;28;20015;-59
2021/08/17 08:07:35;;;;;;;;;;;;;;;16.69;81.71;101692.88;5083841;28;19931;-59
2021/08/17 08:10:02;;;;;;;;;;;;;;;16.76;81.20;101681.78;5058487;28;19931;-59
2021/08/17 08:12:28;;;;;;;;;;;;;;;16.89;81.01;101678.06;5063225;28;19924;-59
2021/08/17 08:14:55;;;;;;;;;;;;;;;16.95;80.04;101679.38;5056079;28;20444;-58
2021/08/17 08:17:22;;;;;;;;;;;;;;;16.93;79.58;101672.50;5072464;28;19956;-58
2021/08/17 08:19:49;;;;;;;;;;;;;;;17.01;79.90;101681.53;5054094;28;19932;-59
2021/08/17 08:22:15;;;;;;;;;;;;;;;16.99;80.01;101672.88;5056463;28;19925;-58
2021/08/17 08:24:42;;;;;;;;;;;;;;;16.99;79.17;101664.91;5065236;28;19924;-58
2021/08/17 08:27:09;;;;;;;;;;;;;;;16.98;79.26;101660.53;5065402;28;20375;-59
2021/08/17 08:29:35;;;;;;;;;;;;;;;17.08;79.42;101662.47;5057320;28;19925;-59
2021/08/17 08:32:02;;;;;;;;;;;;;;;17.15;79.02;101651.22;5076338;28;19924;-59
2021/08/17 08:34:29;;;;;;;;;;;;;;;17.32;78.48;101657.00;5072197;28;20355;-59
2021/08/17 08:36:55;;;;;;;;;;;;;;;17.34;77.29;101658.56;5071501;28;19924;-59
2021/08/17 08:39:24;;;;;;;;;;;;;;;17.40;77.95;101659.88;5064342;28;19963;-60
2021/08/17 08:41:53;;;;;;;;;;;;;;;17.45;77.63;101654.16;5068357;28;19971;-59
2021/08/17 08:44:20;;;;;;;;;;;;;;;17.47;76.84;101654.91;5078579;28;19927;-59
2021/08/17 08:46:47;;;;;;;;;;;;;;;17.54;77.58;101650.78;5074726;28;20379;-59
2021/08/17 08:49:14;;;;;;;;;;;;;;;17.55;76.57;101650.63;5063001;28;20410;-59
2021/08/17 08:51:40;;;;;;;;;;;;;;;17.54;75.83;101656.09;5060130;28;19925;-59
2021/08/17 08:54:07;;;;;;;;;;;;;;;17.63;75.46;101665.09;5071926;28;19932;-59
2021/08/17 08:56:34;;;;;;;;;;;;;;;17.59;75.39;101675.19;5073325;28;19924;-58
2021/08/17 08:59:01;;;;;;;;;;;;;;;17.68;74.87;101669.09;5075138;28;19956;-58
2021/08/17 09:01:28;;;;;;;;;;;;;;;17.75;73.55;101664.09;5075618;28;19928;-58
2021/08/17 09:03:58;;;;;;;;;;;;;;;17.62;74.44;101669.59;5058077;28;19944;-58
2021/08/17 09:06:25;;;;;;;;;;;;;;;17.76;73.60;101665.78;5057442;28;19932;-58
2021/08/17 09:09:11;;;;;;;;;;;;;;;17.63;74.34;101667.78;5072722;28;19928;-58
2021/08/17 09:11:40;;;;;;;;;;;;;;;17.58;74.86;101674.31;5082104;28;19924;-57
2021/08/17 09:14:22;;;;;;;;;;;;;;;17.55;74.82;101663.09;5056188;28;19997;-58
2021/08/17 09:16:53;;;;;;;;;;;;;;;17.58;74.58;101673.47;5055925;28;20341;-58
2021/08/17 09:19:30;;;;;;;;;;;;;;;17.47;74.63;101662.88;5068677;28;19951;-58
2021/08/17 09:21:59;;;;;;;;;;;;;;;17.38;74.57;101662.66;5070671;28;20454;-58
2021/08/17 09:24:28;;;;;;;;;;;;;;;17.40;75.33;101666.03;5058983;28;20386;-58
2021/08/17 09:27:01;;;;;;;;;;;;;;;17.46;74.76;101654.03;5077430;28;20022;-58
2021/08/17 09:29:32;;;;;;;;;;;;;;;17.31;74.28;101655.31;5085616;28;20061;-58
2021/08/17 09:32:00;;;;;;;;;;;;;;;17.43;74.39;101662.28;5085269;28;19924;-46
2021/08/17 09:34:34;;;;;;;;;;;;;;;17.49;74.07;101664.44;5047704;28;19959;-47
2021/08/17 09:37:04;;;;;;;;;;;;;;;17.49;74.08;101652.94;5065054;28;19924;-58
2021/08/17 09:39:33;;;;;;;;;;;;;;;17.61;73.66;101654.59;5075980;28;19955;-58
2021/08/17 09:42:08;;;;;;;;;;;;;;;17.73;72.98;101658.91;5074240;28;19954;-57
2021/08/17 09:44:34;;;;;;;;;;;;;;;17.73;72.83;101650.94;5077141;28;19924;-59
2021/08/17 09:47:01;;;;;;;;;;;;;;;17.83;71.64;101643.03;5057062;28;20292;-58
2021/08/17 09:49:30;;;;;;;;;;;;;;;17.82;71.56;101637.81;5056602;28;19932;-58
2021/08/17 09:51:57;;;;;;;;;;;;;;;17.89;71.22;101625.72;5053684;28;19933;-58
2021/08/17 09:54:27;;;;;;;;;;;;;;;18.04;71.17;101624.44;5070039;28;19935;-58
2021/08/17 09:56:55;;;;;;;;;;;;;;;18.08;70.74;101617.06;5056209;28;19924;-59
2021/08/17 09:59:21;;;;;;;;;;;;;;;18.10;69.94;101619.59;5079618;28;19924;-47
2021/08/17 10:01:48;;;;;;;;;;;;;;;18.13;70.57;101614.81;5074351;28;19931;-48
2021/08/17 10:04:15;;;;;;;;;;;;;;;18.19;71.03;101619.63;5074654;28;20364;-49
2021/08/17 10:06:42;;;;;;;;;;;;;;;18.24;70.19;101620.09;5081904;28;19924;-48
2021/08/17 10:09:09;;;;;;;;;;;;;;;18.20;70.24;101625.78;5075390;28;20375;-48
2021/08/17 10:11:36;;;;;;;;;;;;;;;18.28;69.11;101636.63;5054504;28;20456;-50
2021/08/17 10:14:03;;;;;;;;;;;;;;;18.11;68.86;101639.91;5078418;28;19925;-50
2021/08/17 10:16:29;;;;;;;;;;;;;;;18.26;69.33;101641.25;5074565;28;20318;-50
2021/08/17 10:18:56;;;;;;;;;;;;;;;18.28;69.87;101646.44;5081198;28;19924;-50
2021/08/17 10:21:23;;;;;;;;;;;;;;;18.33;69.74;101644.25;5074244;28;20421;-51
2021/08/17 10:23:50;;;;;;;;;;;;;;;18.32;69.49;101638.06;5056268;28;19928;-47
2021/08/17 10:26:27;;;;;;;;;;;;;;;18.49;69.31;101633.97;5070866;28;19924;-49
2021/08/17 10:28:54;;;;;;;;;;;;;;;18.44;67.46;101616.69;5069120;28;19924;-58
2021/08/17 10:31:22;;;;;;;;;;;;;;;18.57;67.95;101620.00;5058396;28;19959;-59
2021/08/17 10:33:51;;;;;;;;;;;;;;;18.63;68.12;101627.44;5071662;28;19928;-58
2021/08/17 10:36:31;;;;;;;;;;;;;;;18.74;67.97;101629.16;5070054;28;19963;-58
2021/08/17 10:38:58;;;;;;;;;;;;;;;18.55;68.21;101627.25;5082485;28;19925;-45
2021/08/17 10:41:26;;;;;;;;;;;;;;;18.61;68.13;101629.41;5073592;28;20368;-49
2021/08/17 10:43:53;;;;;;;;;;;;;;;18.59;67.60;101620.69;5077836;28;20290;-58
2021/08/17 10:46:22;;;;;;;;;;;;;;;18.52;67.76;101612.38;5087761;28;19932;-58
2021/08/17 10:48:54;;;;;;;;;;;;;;;18.59;68.13;101618.00;5056377;28;20314;-59
2021/08/17 10:51:21;;;;;;;;;;;;;;;18.58;67.20;101625.19;5061301;28;19940;-57
2021/08/17 10:54:03;;;;;;;;;;;;;;;18.53;67.14;101623.91;5072170;28;20291;-58
2021/08/17 10:56:30;;;;;;;;;;;;;;;18.56;67.36;101615.63;5062093;28;19928;-58
2021/08/17 10:58:57;;;;;;;;;;;;;;;18.49;67.84;101614.47;5089146;28;19933;-57
2021/08/17 11:01:30;;;;;;;;;;;;;;;18.47;67.73;101617.25;5082917;28;19924;-57
2021/08/17 11:03:58;;;;;;;;;;;;;;;18.48;67.58;101620.78;5071421;28;19932;-58
2021/08/17 11:06:38;;;;;;;;;;;;;;;18.33;68.17;101623.78;5047561;28;19924;-58
2021/08/17 11:09:06;;;;;;;;;;;;;;;18.49;68.45;101622.47;5093472;28;19928;-58
2021/08/17 11:11:33;;;;;;;;;;;;;;;18.42;67.75;101636.31;5091883;28;20398;-58
2021/08/17 11:14:00;;;;;;;;;;;;;;;18.45;67.72;101635.19;5093049;28;20001;-58
2021/08/17 11:16:27;;;;;;;;;;;;;;;18.45;68.52;101623.69;5092808;28;19924;-58
2021/08/17 11:18:56;;;;;;;;;;;;;;;18.40;68.27;101624.09;5092550;28;19955;-58
2021/08/17 11:21:36;;;;;;;;;;;;;;;18.35;67.38;101621.84;5073321;28;19924;-58
2021/08/17 11:24:22;;;;;;;;;;;;;;;18.27;66.79;101616.34;5092474;28;20307;-58
2021/08/17 11:26:52;;;;;;;;;;;;;;;18.29;67.52;101627.69;5092250;28;19977;-58
2021/08/17 11:29:29;;;;;;;;;;;;;;;18.18;67.87;101627.75;5088737;28;19931;-58
2021/08/17 11:31:57;;;;;;;;;;;;;;;18.06;67.69;101622.53;5091374;28;19931;-58
2021/08/17 11:34:25;;;;;;;;;;;;;;;18.00;68.64;101628.34;5092973;28;19928;-58
2021/08/17 11:37:11;;;;;;;;;;;;;;;18.04;70.22;101619.13;5092398;28;19931;-57
2021/08/17 11:39:42;;;;;;;;;;;;;;;17.89;72.70;101639.03;5090410;28;19977;-58
2021/08/17 11:42:09;;;;;;;;;;;;;;;17.94;72.62;101636.84;5091417;28;19928;-57
2021/08/17 11:44:36;;;;;;;;;;;;;;;17.73;74.08;101634.13;5058281;28;19947;-57
2021/08/17 11:47:04;;;;;;;;;;;;;;;17.73;74.37;101647.44;5093017;28;19927;-56
2021/08/17 11:49:30;;;;;;;;;;;;;;;17.59;74.97;101643.25;5092858;28;20297;-56
2021/08/17 11:52:04;;;;;;;;;;;;;;;17.60;74.69;101650.28;5092982;28;20302;-56
2021/08/17 11:54:32;;;;;;;;;;;;;;;17.36;76.05;101653.13;5075069;28;19924;-56
2021/08/17 11:57:10;;;;;;;;;;;;;;;17.34;77.50;101653.25;5092734;28;19932;-56
2021/08/17 11:59:38;;;;;;;;;;;;;;;17.24;76.76;101645.16;5092864;28;19923;-56
2021/08/17 12:02:04;;;;;;;;;;;;;;;17.20;77.98;101645.53;5092662;28;19928;-54
2021/08/17 12:04:31;;;;;;;;;;;;;;;17.13;78.33;101650.50;5092688;28;19924;-55
2021/08/17 12:07:08;;;;;;;;;;;;;;;17.08;77.82;101646.53;5092840;28;20261;-55
2021/08/17 12:09:35;;;;;;;;;;;;;;;16.86;80.28;101653.50;5075040;28;19924;-55
2021/08/17 12:12:02;;;;;;;;;;;;;;;16.84;80.77;101652.81;5092661;28;19932;-55
2021/08/17 12:14:29;;;;;;;;;;;;;;;16.86;80.48;101645.53;5075011;28;19925;-53
2021/08/17 12:16:56;;;;;;;;;;;;;;;16.83;80.88;101651.94;5092683;28;19931;-53
2021/08/17 12:19:22;;;;;;;;;;;;;;;16.79;81.59;101657.63;5058358;28;20385;-53
2021/08/17 12:21:49;;;;;;;;;;;;;;;16.47;81.64;101653.00;5092842;28;19931;-54
2021/08/17 12:24:20;;;;;;;;;;;;;;;16.25;82.55;101662.63;5092635;28;19924;-54
2021/08/17 12:27:01;;;;;;;;;;;;;;;16.21;83.45;101663.81;5092769;28;20383;-53
2021/08/17 12:29:37;;;;;;;;;;;;;;;16.21;83.27;101667.31;5092924;28;19925;-53
2021/08/17 12:32:17;;;;;;;;;;;;;;;16.16;84.54;101664.16;5094703;28;19943;-56
2021/08/17 12:34:45;;;;;;;;;;;;;;;16.07;84.76;101664.88;5096827;28;20409;-56
2021/08/17 12:37:26;;;;;;;;;;;;;;;16.12;84.03;101664.53;5078510;28;19931;-55
2021/08/17 12:39:54;;;;;;;;;;;;;;;15.98;84.86;101655.81;5096626;28;20279;-54